sensor_id;sensor_type;location;lat;lon;timestamp;P1;durP1;ratioP1;P2;durP2;ratioP2
3633;SDS011;1833;42.718;23.270;2023-08-07T00:02:17;27.80;;;25.90;;
3633;SDS011;1833;42.718;23.270;2023-08-07T00:04:44;27.23;;;25.43;;
3633;SDS011;1833;42.718;23.270;2023-08-07T00:07:11;27.30;;;25.30;;
3633;SDS011;1833;42.718;23.270;2023-08-07T00:09:38;27.70;;;25.80;;
3633;SDS011;1833;42.718;23.270;2023-08-07T00:12:07;27.53;;;25.63;;
3633;SDS011;1833;42.718;23.270;2023-08-07T00:14:34;26.80;;;25.10;;
3633;SDS011;1833;42.718;23.270;2023-08-07T00:17:05;26.17;;;24.47;;
3633;SDS011;1833;42.718;23.270;2023-08-07T00:19:33;26.90;;;25.00;;
3633;SDS011;1833;42.718;23.270;2023-08-07T00:22:00;26.10;;;24.40;;
3633;SDS011;1833;42.718;23.270;2023-08-07T00:24:28;26.27;;;24.47;;
3633;SDS011;1833;42.718;23.270;2023-08-07T00:26:55;26.60;;;24.90;;
3633;SDS011;1833;42.718;23.270;2023-08-07T00:29:24;26.60;;;24.80;;
3633;SDS011;1833;42.718;23.270;2023-08-07T00:31:51;26.53;;;24.73;;
3633;SDS011;1833;42.718;23.270;2023-08-07T00:34:18;26.53;;;24.83;;
3633;SDS011;1833;42.718;23.270;2023-08-07T00:36:46;26.00;;;24.30;;
3633;SDS011;1833;42.718;23.270;2023-08-07T00:39:13;26.50;;;24.50;;
3633;SDS011;1833;42.718;23.270;2023-08-07T00:41:40;25.17;;;23.57;;
3633;SDS011;1833;42.718;23.270;2023-08-07T00:44:07;26.40;;;24.70;;
3633;SDS011;1833;42.718;23.270;2023-08-07T00:46:36;25.97;;;24.17;;
3633;SDS011;1833;42.718;23.270;2023-08-07T00:49:04;25.57;;;23.97;;
3633;SDS011;1833;42.718;23.270;2023-08-07T00:51:34;25.60;;;23.90;;
3633;SDS011;1833;42.718;23.270;2023-08-07T00:54:02;25.60;;;23.90;;
3633;SDS011;1833;42.718;23.270;2023-08-07T00:56:32;25.70;;;24.00;;
3633;SDS011;1833;42.718;23.270;2023-08-07T00:58:59;26.90;;;25.00;;
3633;SDS011;1833;42.718;23.270;2023-08-07T01:01:27;26.70;;;24.90;;
3633;SDS011;1833;42.718;23.270;2023-08-07T01:03:56;25.60;;;23.60;;
3633;SDS011;1833;42.718;23.270;2023-08-07T01:06:23;25.63;;;24.00;;
3633;SDS011;1833;42.718;23.270;2023-08-07T01:08:51;26.83;;;25.03;;
3633;SDS011;1833;42.718;23.270;2023-08-07T01:11:20;25.20;;;23.50;;
3633;SDS011;1833;42.718;23.270;2023-08-07T01:13:51;25.90;;;24.20;;
3633;SDS011;1833;42.718;23.270;2023-08-07T01:16:21;25.50;;;23.90;;
3633;SDS011;1833;42.718;23.270;2023-08-07T01:18:50;25.33;;;23.70;;
3633;SDS011;1833;42.718;23.270;2023-08-07T01:21:19;25.40;;;23.80;;
3633;SDS011;1833;42.718;23.270;2023-08-07T01:23:48;26.03;;;24.33;;
3633;SDS011;1833;42.718;23.270;2023-08-07T01:26:16;25.53;;;23.83;;
3633;SDS011;1833;42.718;23.270;2023-08-07T01:28:46;26.40;;;24.60;;
3633;SDS011;1833;42.718;23.270;2023-08-07T01:31:15;24.97;;;23.37;;
3633;SDS011;1833;42.718;23.270;2023-08-07T01:33:47;25.53;;;23.83;;
3633;SDS011;1833;42.718;23.270;2023-08-07T01:36:14;25.80;;;24.00;;
3633;SDS011;1833;42.718;23.270;2023-08-07T01:38:43;25.50;;;23.80;;
3633;SDS011;1833;42.718;23.270;2023-08-07T01:41:12;26.93;;;25.13;;
3633;SDS011;1833;42.718;23.270;2023-08-07T01:43:39;27.53;;;25.63;;
3633;SDS011;1833;42.718;23.270;2023-08-07T01:46:07;27.50;;;25.50;;
3633;SDS011;1833;42.718;23.270;2023-08-07T01:48:34;27.10;;;25.17;;
3633;SDS011;1833;42.718;23.270;2023-08-07T01:51:01;27.00;;;25.00;;
3633;SDS011;1833;42.718;23.270;2023-08-07T01:53:28;27.80;;;25.90;;
3633;SDS011;1833;42.718;23.270;2023-08-07T01:55:56;26.63;;;24.73;;
3633;SDS011;1833;42.718;23.270;2023-08-07T01:58:24;25.70;;;23.80;;
3633;SDS011;1833;42.718;23.270;2023-08-07T02:00:52;26.43;;;24.67;;
3633;SDS011;1833;42.718;23.270;2023-08-07T02:03:19;27.10;;;25.30;;
3633;SDS011;1833;42.718;23.270;2023-08-07T02:05:47;27.53;;;25.63;;
3633;SDS011;1833;42.718;23.270;2023-08-07T02:08:14;27.47;;;25.60;;
3633;SDS011;1833;42.718;23.270;2023-08-07T02:10:41;27.03;;;25.17;;
3633;SDS011;1833;42.718;23.270;2023-08-07T02:13:09;26.93;;;25.03;;
3633;SDS011;1833;42.718;23.270;2023-08-07T02:15:37;26.30;;;24.40;;
3633;SDS011;1833;42.718;23.270;2023-08-07T02:18:04;27.03;;;25.10;;
3633;SDS011;1833;42.718;23.270;2023-08-07T02:20:32;27.30;;;25.30;;
3633;SDS011;1833;42.718;23.270;2023-08-07T02:22:59;26.80;;;25.00;;
3633;SDS011;1833;42.718;23.270;2023-08-07T02:25:26;26.80;;;24.90;;
3633;SDS011;1833;42.718;23.270;2023-08-07T02:27:52;26.27;;;24.47;;
3633;SDS011;1833;42.718;23.270;2023-08-07T02:30:20;25.90;;;24.20;;
3633;SDS011;1833;42.718;23.270;2023-08-07T02:32:48;25.60;;;23.80;;
3633;SDS011;1833;42.718;23.270;2023-08-07T02:35:16;26.20;;;24.40;;
3633;SDS011;1833;42.718;23.270;2023-08-07T02:37:43;24.00;;;22.40;;
3633;SDS011;1833;42.718;23.270;2023-08-07T02:40:10;26.57;;;24.70;;
3633;SDS011;1833;42.718;23.270;2023-08-07T02:42:40;24.87;;;23.00;;
3633;SDS011;1833;42.718;23.270;2023-08-07T02:45:08;27.07;;;25.17;;
3633;SDS011;1833;42.718;23.270;2023-08-07T02:47:35;26.20;;;24.30;;
3633;SDS011;1833;42.718;23.270;2023-08-07T02:50:04;26.20;;;24.40;;
3633;SDS011;1833;42.718;23.270;2023-08-07T02:52:31;26.40;;;24.53;;
3633;SDS011;1833;42.718;23.270;2023-08-07T02:54:59;26.50;;;24.70;;
3633;SDS011;1833;42.718;23.270;2023-08-07T02:57:26;24.70;;;22.90;;
3633;SDS011;1833;42.718;23.270;2023-08-07T02:59:54;25.57;;;23.77;;
3633;SDS011;1833;42.718;23.270;2023-08-07T03:02:21;25.57;;;23.70;;
3633;SDS011;1833;42.718;23.270;2023-08-07T03:04:48;24.50;;;22.90;;
3633;SDS011;1833;42.718;23.270;2023-08-07T03:07:17;24.43;;;22.83;;
3633;SDS011;1833;42.718;23.270;2023-08-07T03:09:45;24.87;;;23.17;;
3633;SDS011;1833;42.718;23.270;2023-08-07T03:12:12;24.07;;;22.47;;
3633;SDS011;1833;42.718;23.270;2023-08-07T03:14:40;25.50;;;23.70;;
3633;SDS011;1833;42.718;23.270;2023-08-07T03:17:07;25.80;;;24.03;;
3633;SDS011;1833;42.718;23.270;2023-08-07T03:19:34;23.70;;;22.10;;
3633;SDS011;1833;42.718;23.270;2023-08-07T03:22:02;24.60;;;22.70;;
3633;SDS011;1833;42.718;23.270;2023-08-07T03:24:30;24.67;;;22.97;;
3633;SDS011;1833;42.718;23.270;2023-08-07T03:26:58;26.10;;;24.30;;
3633;SDS011;1833;42.718;23.270;2023-08-07T03:29:25;27.30;;;25.40;;
3633;SDS011;1833;42.718;23.270;2023-08-07T03:31:52;25.93;;;24.10;;
3633;SDS011;1833;42.718;23.270;2023-08-07T03:34:19;26.03;;;24.20;;
3633;SDS011;1833;42.718;23.270;2023-08-07T03:36:47;26.90;;;24.90;;
3633;SDS011;1833;42.718;23.270;2023-08-07T03:39:14;25.97;;;24.17;;
3633;SDS011;1833;42.718;23.270;2023-08-07T03:41:43;27.30;;;25.30;;
3633;SDS011;1833;42.718;23.270;2023-08-07T03:44:10;25.77;;;23.97;;
3633;SDS011;1833;42.718;23.270;2023-08-07T03:46:37;26.33;;;24.53;;
3633;SDS011;1833;42.718;23.270;2023-08-07T03:49:05;25.30;;;23.43;;
3633;SDS011;1833;42.718;23.270;2023-08-07T03:51:32;26.07;;;24.10;;
3633;SDS011;1833;42.718;23.270;2023-08-07T03:53:59;24.87;;;23.13;;
3633;SDS011;1833;42.718;23.270;2023-08-07T03:56:27;25.73;;;24.00;;
3633;SDS011;1833;42.718;23.270;2023-08-07T03:58:58;24.53;;;22.77;;
3633;SDS011;1833;42.718;23.270;2023-08-07T04:01:26;31.10;;;28.60;;
3633;SDS011;1833;42.718;23.270;2023-08-07T04:03:53;25.37;;;23.60;;
3633;SDS011;1833;42.718;23.270;2023-08-07T04:06:20;24.53;;;22.87;;
3633;SDS011;1833;42.718;23.270;2023-08-07T04:08:47;22.60;;;21.20;;
3633;SDS011;1833;42.718;23.270;2023-08-07T04:11:15;25.80;;;24.00;;
3633;SDS011;1833;42.718;23.270;2023-08-07T04:13:42;26.40;;;24.40;;
3633;SDS011;1833;42.718;23.270;2023-08-07T04:16:11;27.43;;;25.43;;
3633;SDS011;1833;42.718;23.270;2023-08-07T04:18:38;29.83;;;27.33;;
3633;SDS011;1833;42.718;23.270;2023-08-07T04:21:05;27.40;;;25.40;;
3633;SDS011;1833;42.718;23.270;2023-08-07T04:23:33;28.53;;;26.43;;
3633;SDS011;1833;42.718;23.270;2023-08-07T04:26:00;26.77;;;24.37;;
3633;SDS011;1833;42.718;23.270;2023-08-07T04:28:27;28.33;;;26.33;;
3633;SDS011;1833;42.718;23.270;2023-08-07T04:30:55;25.83;;;23.93;;
3633;SDS011;1833;42.718;23.270;2023-08-07T04:33:23;28.43;;;26.10;;
3633;SDS011;1833;42.718;23.270;2023-08-07T04:35:51;30.40;;;28.20;;
3633;SDS011;1833;42.718;23.270;2023-08-07T04:38:19;30.53;;;28.20;;
3633;SDS011;1833;42.718;23.270;2023-08-07T04:40:46;30.57;;;28.37;;
3633;SDS011;1833;42.718;23.270;2023-08-07T04:43:14;29.80;;;27.00;;
3633;SDS011;1833;42.718;23.270;2023-08-07T04:45:41;30.90;;;28.60;;
3633;SDS011;1833;42.718;23.270;2023-08-07T04:48:10;30.23;;;28.03;;
3633;SDS011;1833;42.718;23.270;2023-08-07T04:50:38;32.17;;;29.77;;
3633;SDS011;1833;42.718;23.270;2023-08-07T04:53:06;33.13;;;30.63;;
3633;SDS011;1833;42.718;23.270;2023-08-07T04:55:33;31.50;;;29.20;;
3633;SDS011;1833;42.718;23.270;2023-08-07T04:58:00;34.90;;;32.30;;
3633;SDS011;1833;42.718;23.270;2023-08-07T05:00:28;37.17;;;34.37;;
3633;SDS011;1833;42.718;23.270;2023-08-07T05:02:55;35.53;;;32.93;;
3633;SDS011;1833;42.718;23.270;2023-08-07T05:05:22;36.03;;;33.40;;
3633;SDS011;1833;42.718;23.270;2023-08-07T05:07:51;44.40;;;41.20;;
3633;SDS011;1833;42.718;23.270;2023-08-07T05:10:18;32.20;;;29.80;;
3633;SDS011;1833;42.718;23.270;2023-08-07T05:12:45;33.87;;;31.47;;
3633;SDS011;1833;42.718;23.270;2023-08-07T05:15:12;31.80;;;29.30;;
3633;SDS011;1833;42.718;23.270;2023-08-07T05:17:40;30.90;;;28.70;;
3633;SDS011;1833;42.718;23.270;2023-08-07T05:20:07;31.07;;;28.57;;
3633;SDS011;1833;42.718;23.270;2023-08-07T05:22:35;32.50;;;30.10;;
3633;SDS011;1833;42.718;23.270;2023-08-07T05:25:04;30.50;;;28.10;;
3633;SDS011;1833;42.718;23.270;2023-08-07T05:27:31;29.70;;;27.57;;
3633;SDS011;1833;42.718;23.270;2023-08-07T05:30:00;32.43;;;29.30;;
3633;SDS011;1833;42.718;23.270;2023-08-07T05:32:27;31.27;;;28.77;;
3633;SDS011;1833;42.718;23.270;2023-08-07T05:34:54;30.80;;;28.50;;
3633;SDS011;1833;42.718;23.270;2023-08-07T05:37:21;33.13;;;30.53;;
3633;SDS011;1833;42.718;23.270;2023-08-07T05:39:49;33.30;;;30.47;;
3633;SDS011;1833;42.718;23.270;2023-08-07T05:42:17;32.97;;;30.50;;
3633;SDS011;1833;42.718;23.270;2023-08-07T05:44:45;30.10;;;27.90;;
3633;SDS011;1833;42.718;23.270;2023-08-07T05:47:12;31.03;;;28.33;;
3633;SDS011;1833;42.718;23.270;2023-08-07T05:49:39;31.60;;;29.20;;
3633;SDS011;1833;42.718;23.270;2023-08-07T05:52:07;30.17;;;27.87;;
3633;SDS011;1833;42.718;23.270;2023-08-07T05:54:34;32.07;;;29.30;;
3633;SDS011;1833;42.718;23.270;2023-08-07T05:57:02;29.80;;;27.60;;
3633;SDS011;1833;42.718;23.270;2023-08-07T05:59:30;31.23;;;29.03;;
3633;SDS011;1833;42.718;23.270;2023-08-07T06:01:59;31.45;;;28.85;;
3633;SDS011;1833;42.718;23.270;2023-08-07T06:04:27;31.20;;;29.00;;
3633;SDS011;1833;42.718;23.270;2023-08-07T06:06:54;29.35;;;27.25;;
3633;SDS011;1833;42.718;23.270;2023-08-07T06:09:22;30.17;;;27.88;;
3633;SDS011;1833;42.718;23.270;2023-08-07T06:11:49;29.60;;;27.40;;
3633;SDS011;1833;42.718;23.270;2023-08-07T06:14:16;31.65;;;29.13;;
3633;SDS011;1833;42.718;23.270;2023-08-07T06:16:45;30.48;;;28.27;;
3633;SDS011;1833;42.718;23.270;2023-08-07T06:19:12;32.95;;;30.45;;
3633;SDS011;1833;42.718;23.270;2023-08-07T06:21:39;33.10;;;30.40;;
3633;SDS011;1833;42.718;23.270;2023-08-07T06:24:06;30.80;;;28.20;;
3633;SDS011;1833;42.718;23.270;2023-08-07T06:26:34;30.83;;;28.63;;
3633;SDS011;1833;42.718;23.270;2023-08-07T06:29:01;31.48;;;29.17;;
3633;SDS011;1833;42.718;23.270;2023-08-07T06:31:29;31.77;;;29.40;;
3633;SDS011;1833;42.718;23.270;2023-08-07T06:33:57;30.02;;;27.65;;
3633;SDS011;1833;42.718;23.270;2023-08-07T06:36:25;33.28;;;30.77;;
3633;SDS011;1833;42.718;23.270;2023-08-07T06:38:52;31.63;;;29.33;;
3633;SDS011;1833;42.718;23.270;2023-08-07T06:41:20;31.27;;;28.90;;
3633;SDS011;1833;42.718;23.270;2023-08-07T06:43:47;31.50;;;29.25;;
3633;SDS011;1833;42.718;23.270;2023-08-07T06:46:14;30.83;;;28.63;;
3633;SDS011;1833;42.718;23.270;2023-08-07T06:48:42;31.13;;;28.87;;
3633;SDS011;1833;42.718;23.270;2023-08-07T06:51:10;31.20;;;28.90;;
3633;SDS011;1833;42.718;23.270;2023-08-07T06:53:38;29.60;;;27.50;;
3633;SDS011;1833;42.718;23.270;2023-08-07T06:56:05;30.30;;;28.03;;
3633;SDS011;1833;42.718;23.270;2023-08-07T06:58:32;31.00;;;28.70;;
3633;SDS011;1833;42.718;23.270;2023-08-07T07:00:59;29.43;;;27.23;;
3633;SDS011;1833;42.718;23.270;2023-08-07T07:03:27;28.63;;;26.53;;
3633;SDS011;1833;42.718;23.270;2023-08-07T07:05:55;33.00;;;30.40;;
3633;SDS011;1833;42.718;23.270;2023-08-07T07:08:23;29.13;;;27.00;;
3633;SDS011;1833;42.718;23.270;2023-08-07T07:10:51;29.80;;;27.60;;
3633;SDS011;1833;42.718;23.270;2023-08-07T07:13:18;29.40;;;27.27;;
3633;SDS011;1833;42.718;23.270;2023-08-07T07:15:45;30.90;;;28.53;;
3633;SDS011;1833;42.718;23.270;2023-08-07T07:18:12;30.90;;;28.60;;
3633;SDS011;1833;42.718;23.270;2023-08-07T07:20:40;31.60;;;29.20;;
3633;SDS011;1833;42.718;23.270;2023-08-07T07:23:07;30.67;;;28.17;;
3633;SDS011;1833;42.718;23.270;2023-08-07T07:25:36;30.57;;;28.17;;
3633;SDS011;1833;42.718;23.270;2023-08-07T07:28:03;29.40;;;27.20;;
3633;SDS011;1833;42.718;23.270;2023-08-07T07:30:31;31.30;;;28.90;;
3633;SDS011;1833;42.718;23.270;2023-08-07T07:32:58;31.33;;;29.00;;
3633;SDS011;1833;42.718;23.270;2023-08-07T07:35:25;29.27;;;26.87;;
3633;SDS011;1833;42.718;23.270;2023-08-07T07:37:52;31.10;;;28.57;;
3633;SDS011;1833;42.718;23.270;2023-08-07T07:40:20;30.53;;;28.13;;
3633;SDS011;1833;42.718;23.270;2023-08-07T07:42:48;31.37;;;28.70;;
3633;SDS011;1833;42.718;23.270;2023-08-07T07:45:15;30.40;;;27.90;;
3633;SDS011;1833;42.718;23.270;2023-08-07T07:47:43;28.57;;;26.27;;
3633;SDS011;1833;42.718;23.270;2023-08-07T07:50:10;28.30;;;26.10;;
3633;SDS011;1833;42.718;23.270;2023-08-07T07:52:38;30.60;;;28.10;;
3633;SDS011;1833;42.718;23.270;2023-08-07T07:55:06;33.27;;;29.73;;
3633;SDS011;1833;42.718;23.270;2023-08-07T07:57:34;29.20;;;27.00;;
3633;SDS011;1833;42.718;23.270;2023-08-07T08:00:03;30.03;;;27.53;;
3633;SDS011;1833;42.718;23.270;2023-08-07T08:02:35;30.60;;;28.10;;
3633;SDS011;1833;42.718;23.270;2023-08-07T08:05:02;30.37;;;28.07;;
3633;SDS011;1833;42.718;23.270;2023-08-07T08:07:30;29.40;;;27.30;;
3633;SDS011;1833;42.718;23.270;2023-08-07T08:09:59;32.10;;;29.40;;
3633;SDS011;1833;42.718;23.270;2023-08-07T08:12:26;31.93;;;29.50;;
3633;SDS011;1833;42.718;23.270;2023-08-07T08:14:53;28.60;;;26.40;;
3633;SDS011;1833;42.718;23.270;2023-08-07T08:17:22;29.10;;;26.80;;
3633;SDS011;1833;42.718;23.270;2023-08-07T08:19:50;32.70;;;29.90;;
3633;SDS011;1833;42.718;23.270;2023-08-07T08:22:17;33.30;;;30.33;;
3633;SDS011;1833;42.718;23.270;2023-08-07T08:24:45;31.60;;;28.93;;
3633;SDS011;1833;42.718;23.270;2023-08-07T08:27:12;31.63;;;29.30;;
3633;SDS011;1833;42.718;23.270;2023-08-07T08:29:41;31.07;;;28.57;;
3633;SDS011;1833;42.718;23.270;2023-08-07T08:32:08;34.63;;;31.20;;
3633;SDS011;1833;42.718;23.270;2023-08-07T08:34:37;31.80;;;29.30;;
3633;SDS011;1833;42.718;23.270;2023-08-07T08:37:04;31.03;;;28.53;;
3633;SDS011;1833;42.718;23.270;2023-08-07T08:39:32;37.40;;;33.60;;
3633;SDS011;1833;42.718;23.270;2023-08-07T08:41:59;33.93;;;30.90;;
3633;SDS011;1833;42.718;23.270;2023-08-07T08:44:26;31.10;;;28.70;;
3633;SDS011;1833;42.718;23.270;2023-08-07T08:46:56;30.87;;;28.57;;
3633;SDS011;1833;42.718;23.270;2023-08-07T08:49:27;31.30;;;28.80;;
3633;SDS011;1833;42.718;23.270;2023-08-07T08:51:56;28.00;;;25.90;;
3633;SDS011;1833;42.718;23.270;2023-08-07T08:54:24;30.07;;;27.80;;
3633;SDS011;1833;42.718;23.270;2023-08-07T08:56:52;28.67;;;26.57;;
3633;SDS011;1833;42.718;23.270;2023-08-07T08:59:20;31.97;;;29.37;;
3633;SDS011;1833;42.718;23.270;2023-08-07T09:01:48;30.27;;;27.83;;
3633;SDS011;1833;42.718;23.270;2023-08-07T09:04:15;28.73;;;26.63;;
3633;SDS011;1833;42.718;23.270;2023-08-07T09:06:43;29.10;;;26.90;;
3633;SDS011;1833;42.718;23.270;2023-08-07T09:09:13;27.97;;;25.87;;
3633;SDS011;1833;42.718;23.270;2023-08-07T09:11:41;30.17;;;27.87;;
3633;SDS011;1833;42.718;23.270;2023-08-07T09:14:08;29.70;;;27.40;;
3633;SDS011;1833;42.718;23.270;2023-08-07T09:16:38;31.03;;;28.73;;
3633;SDS011;1833;42.718;23.270;2023-08-07T09:19:06;30.65;;;28.05;;
3633;SDS011;1833;42.718;23.270;2023-08-07T09:21:33;30.60;;;28.17;;
3633;SDS011;1833;42.718;23.270;2023-08-07T09:24:01;31.27;;;28.88;;
3633;SDS011;1833;42.718;23.270;2023-08-07T09:26:31;31.00;;;28.70;;
3633;SDS011;1833;42.718;23.270;2023-08-07T09:28:59;29.50;;;27.20;;
3633;SDS011;1833;42.718;23.270;2023-08-07T09:31:26;29.23;;;27.02;;
3633;SDS011;1833;42.718;23.270;2023-08-07T09:33:58;30.27;;;27.98;;
3633;SDS011;1833;42.718;23.270;2023-08-07T09:36:29;29.75;;;27.35;;
3633;SDS011;1833;42.718;23.270;2023-08-07T09:38:58;30.30;;;28.00;;
3633;SDS011;1833;42.718;23.270;2023-08-07T09:41:29;32.17;;;29.20;;
3633;SDS011;1833;42.718;23.270;2023-08-07T09:43:57;32.05;;;29.55;;
3633;SDS011;1833;42.718;23.270;2023-08-07T09:46:25;36.60;;;32.35;;
3633;SDS011;1833;42.718;23.270;2023-08-07T09:48:52;30.23;;;27.92;;
3633;SDS011;1833;42.718;23.270;2023-08-07T09:51:24;33.67;;;30.67;;
3633;SDS011;1833;42.718;23.270;2023-08-07T09:53:51;31.48;;;28.73;;
3633;SDS011;1833;42.718;23.270;2023-08-07T09:56:18;31.60;;;29.08;;
3633;SDS011;1833;42.718;23.270;2023-08-07T09:58:51;30.85;;;28.45;;
3633;SDS011;1833;42.718;23.270;2023-08-07T10:01:20;29.33;;;27.02;;
3633;SDS011;1833;42.718;23.270;2023-08-07T10:03:47;28.55;;;26.35;;
3633;SDS011;1833;42.718;23.270;2023-08-07T10:06:15;29.48;;;27.17;;
3633;SDS011;1833;42.718;23.270;2023-08-07T10:08:42;32.00;;;29.60;;
3633;SDS011;1833;42.718;23.270;2023-08-07T10:11:10;29.30;;;27.10;;
3633;SDS011;1833;42.718;23.270;2023-08-07T10:13:39;28.48;;;26.38;;
3633;SDS011;1833;42.718;23.270;2023-08-07T10:16:08;30.75;;;28.55;;
3633;SDS011;1833;42.718;23.270;2023-08-07T10:18:36;30.17;;;27.88;;
3633;SDS011;1833;42.718;23.270;2023-08-07T10:21:04;30.65;;;27.73;;
3633;SDS011;1833;42.718;23.270;2023-08-07T10:23:32;30.38;;;28.08;;
3633;SDS011;1833;42.718;23.270;2023-08-07T10:26:00;28.60;;;26.50;;
3633;SDS011;1833;42.718;23.270;2023-08-07T10:28:28;34.08;;;31.02;;
3633;SDS011;1833;42.718;23.270;2023-08-07T10:30:56;30.25;;;27.75;;
3633;SDS011;1833;42.718;23.270;2023-08-07T10:33:25;32.78;;;30.27;;
3633;SDS011;1833;42.718;23.270;2023-08-07T10:35:52;30.80;;;28.50;;
3633;SDS011;1833;42.718;23.270;2023-08-07T10:38:22;30.20;;;27.08;;
3633;SDS011;1833;42.718;23.270;2023-08-07T10:40:59;30.42;;;28.02;;
3633;SDS011;1833;42.718;23.270;2023-08-07T10:43:27;29.13;;;26.73;;
3633;SDS011;1833;42.718;23.270;2023-08-07T10:45:54;30.33;;;27.88;;
3633;SDS011;1833;42.718;23.270;2023-08-07T10:48:21;30.63;;;28.33;;
3633;SDS011;1833;42.718;23.270;2023-08-07T10:50:51;32.67;;;30.27;;
3633;SDS011;1833;42.718;23.270;2023-08-07T10:53:18;30.55;;;28.20;;
3633;SDS011;1833;42.718;23.270;2023-08-07T10:55:47;30.20;;;27.95;;
3633;SDS011;1833;42.718;23.270;2023-08-07T10:58:21;31.50;;;29.10;;
3633;SDS011;1833;42.718;23.270;2023-08-07T11:00:49;31.60;;;29.00;;
3633;SDS011;1833;42.718;23.270;2023-08-07T11:03:19;29.83;;;27.33;;
3633;SDS011;1833;42.718;23.270;2023-08-07T11:05:47;29.35;;;27.02;;
3633;SDS011;1833;42.718;23.270;2023-08-07T11:08:15;29.45;;;27.25;;
3633;SDS011;1833;42.718;23.270;2023-08-07T11:10:42;30.80;;;28.40;;
3633;SDS011;1833;42.718;23.270;2023-08-07T11:13:10;28.88;;;26.67;;
3633;SDS011;1833;42.718;23.270;2023-08-07T11:15:37;29.77;;;27.40;;
3633;SDS011;1833;42.718;23.270;2023-08-07T11:18:04;29.45;;;27.15;;
3633;SDS011;1833;42.718;23.270;2023-08-07T11:20:32;30.08;;;27.67;;
3633;SDS011;1833;42.718;23.270;2023-08-07T11:23:04;29.27;;;26.83;;
3633;SDS011;1833;42.718;23.270;2023-08-07T11:25:32;30.38;;;27.98;;
3633;SDS011;1833;42.718;23.270;2023-08-07T11:28:00;29.05;;;26.80;;
3633;SDS011;1833;42.718;23.270;2023-08-07T11:30:27;29.92;;;27.52;;
3633;SDS011;1833;42.718;23.270;2023-08-07T11:32:54;32.05;;;29.45;;
3633;SDS011;1833;42.718;23.270;2023-08-07T11:35:22;30.40;;;27.75;;
3633;SDS011;1833;42.718;23.270;2023-08-07T11:37:49;30.30;;;27.92;;
3633;SDS011;1833;42.718;23.270;2023-08-07T11:40:19;31.20;;;28.85;;
3633;SDS011;1833;42.718;23.270;2023-08-07T11:42:47;32.97;;;30.27;;
3633;SDS011;1833;42.718;23.270;2023-08-07T11:45:15;34.53;;;31.77;;
3633;SDS011;1833;42.718;23.270;2023-08-07T11:47:42;33.58;;;30.98;;
3633;SDS011;1833;42.718;23.270;2023-08-07T11:50:09;32.53;;;30.02;;
3633;SDS011;1833;42.718;23.270;2023-08-07T11:52:37;31.52;;;29.00;;
3633;SDS011;1833;42.718;23.270;2023-08-07T11:55:05;37.42;;;33.67;;
3633;SDS011;1833;42.718;23.270;2023-08-07T11:57:34;31.23;;;28.65;;
3633;SDS011;1833;42.718;23.270;2023-08-07T12:00:03;35.40;;;31.75;;
3633;SDS011;1833;42.718;23.270;2023-08-07T12:02:35;33.15;;;30.65;;
3633;SDS011;1833;42.718;23.270;2023-08-07T12:05:02;30.13;;;27.75;;
3633;SDS011;1833;42.718;23.270;2023-08-07T12:07:30;32.42;;;30.02;;
3633;SDS011;1833;42.718;23.270;2023-08-07T12:09:57;34.17;;;31.40;;
3633;SDS011;1833;42.718;23.270;2023-08-07T12:12:24;32.47;;;30.08;;
3633;SDS011;1833;42.718;23.270;2023-08-07T12:14:52;32.70;;;30.20;;
3633;SDS011;1833;42.718;23.270;2023-08-07T12:17:22;32.92;;;30.52;;
3633;SDS011;1833;42.718;23.270;2023-08-07T12:19:49;30.48;;;28.27;;
3633;SDS011;1833;42.718;23.270;2023-08-07T12:22:18;31.67;;;29.20;;
3633;SDS011;1833;42.718;23.270;2023-08-07T12:24:46;32.80;;;30.50;;
3633;SDS011;1833;42.718;23.270;2023-08-07T12:27:14;31.65;;;29.35;;
3633;SDS011;1833;42.718;23.270;2023-08-07T12:29:41;35.10;;;32.50;;
3633;SDS011;1833;42.718;23.270;2023-08-07T12:32:08;32.80;;;30.10;;
3633;SDS011;1833;42.718;23.270;2023-08-07T12:34:37;34.07;;;31.03;;
3633;SDS011;1833;42.718;23.270;2023-08-07T12:37:05;33.97;;;31.30;;
3633;SDS011;1833;42.718;23.270;2023-08-07T12:39:34;34.93;;;32.43;;
3633;SDS011;1833;42.718;23.270;2023-08-07T12:42:01;34.83;;;32.13;;
3633;SDS011;1833;42.718;23.270;2023-08-07T12:44:30;32.37;;;29.53;;
3633;SDS011;1833;42.718;23.270;2023-08-07T12:46:57;30.50;;;28.13;;
3633;SDS011;1833;42.718;23.270;2023-08-07T12:49:24;33.35;;;30.75;;
3633;SDS011;1833;42.718;23.270;2023-08-07T12:51:53;32.90;;;30.20;;
3633;SDS011;1833;42.718;23.270;2023-08-07T12:54:23;31.87;;;29.27;;
3633;SDS011;1833;42.718;23.270;2023-08-07T12:56:50;30.67;;;28.27;;
3633;SDS011;1833;42.718;23.270;2023-08-07T12:59:18;30.67;;;28.15;;
3633;SDS011;1833;42.718;23.270;2023-08-07T13:01:45;28.77;;;26.57;;
3633;SDS011;1833;42.718;23.270;2023-08-07T13:04:12;29.70;;;27.40;;
3633;SDS011;1833;42.718;23.270;2023-08-07T13:06:40;28.70;;;26.30;;
3633;SDS011;1833;42.718;23.270;2023-08-07T13:09:09;29.17;;;26.67;;
3633;SDS011;1833;42.718;23.270;2023-08-07T13:11:36;30.00;;;27.50;;
3633;SDS011;1833;42.718;23.270;2023-08-07T13:14:03;45.47;;;41.17;;
3633;SDS011;1833;42.718;23.270;2023-08-07T13:16:31;37.87;;;34.70;;
3633;SDS011;1833;42.718;23.270;2023-08-07T13:18:58;37.33;;;34.00;;
3633;SDS011;1833;42.718;23.270;2023-08-07T13:21:25;30.80;;;28.30;;
3633;SDS011;1833;42.718;23.270;2023-08-07T13:23:53;32.20;;;29.40;;
3633;SDS011;1833;42.718;23.270;2023-08-07T13:26:21;30.17;;;27.87;;
3633;SDS011;1833;42.718;23.270;2023-08-07T13:28:49;30.80;;;28.30;;
3633;SDS011;1833;42.718;23.270;2023-08-07T13:31:16;30.93;;;28.53;;
3633;SDS011;1833;42.718;23.270;2023-08-07T13:33:43;31.30;;;28.80;;
3633;SDS011;1833;42.718;23.270;2023-08-07T13:36:10;29.23;;;27.00;;
3633;SDS011;1833;42.718;23.270;2023-08-07T13:38:37;29.10;;;26.80;;
3633;SDS011;1833;42.718;23.270;2023-08-07T13:41:05;30.63;;;28.23;;
3633;SDS011;1833;42.718;23.270;2023-08-07T13:43:34;30.00;;;27.60;;
3633;SDS011;1833;42.718;23.270;2023-08-07T13:46:01;32.33;;;29.83;;
3633;SDS011;1833;42.718;23.270;2023-08-07T13:48:28;35.17;;;32.17;;
3633;SDS011;1833;42.718;23.270;2023-08-07T13:50:58;30.13;;;27.83;;
3633;SDS011;1833;42.718;23.270;2023-08-07T13:53:29;32.60;;;30.00;;
3633;SDS011;1833;42.718;23.270;2023-08-07T13:55:56;31.30;;;28.80;;
3633;SDS011;1833;42.718;23.270;2023-08-07T13:58:24;30.53;;;27.77;;
3633;SDS011;1833;42.718;23.270;2023-08-07T14:00:52;29.63;;;27.33;;
3633;SDS011;1833;42.718;23.270;2023-08-07T14:03:20;29.10;;;26.60;;
3633;SDS011;1833;42.718;23.270;2023-08-07T14:05:47;30.13;;;27.53;;
3633;SDS011;1833;42.718;23.270;2023-08-07T14:08:15;30.37;;;27.97;;
3633;SDS011;1833;42.718;23.270;2023-08-07T14:10:42;29.93;;;27.63;;
3633;SDS011;1833;42.718;23.270;2023-08-07T14:13:09;31.03;;;28.53;;
3633;SDS011;1833;42.718;23.270;2023-08-07T14:15:37;29.33;;;26.50;;
3633;SDS011;1833;42.718;23.270;2023-08-07T14:18:05;28.13;;;25.93;;
3633;SDS011;1833;42.718;23.270;2023-08-07T14:20:33;32.50;;;29.90;;
3633;SDS011;1833;42.718;23.270;2023-08-07T14:23:00;30.33;;;27.90;;
3633;SDS011;1833;42.718;23.270;2023-08-07T14:25:30;30.50;;;28.10;;
3633;SDS011;1833;42.718;23.270;2023-08-07T14:27:57;29.33;;;27.00;;
3633;SDS011;1833;42.718;23.270;2023-08-07T14:30:24;31.03;;;28.30;;
3633;SDS011;1833;42.718;23.270;2023-08-07T14:32:52;30.60;;;27.67;;
3633;SDS011;1833;42.718;23.270;2023-08-07T14:35:20;27.53;;;25.33;;
3633;SDS011;1833;42.718;23.270;2023-08-07T14:37:47;30.80;;;28.30;;